createdAt,value
2019-01-30T00:00:40.270Z,57.00
2019-01-30T00:01:41.293Z,57.20
2019-01-30T00:02:42.299Z,57.20
2019-01-30T00:03:43.316Z,57.20
2019-01-30T00:04:44.338Z,57.00
2019-01-30T00:05:45.673Z,56.80
2019-01-30T00:06:46.712Z,56.70
2019-01-30T00:08:01.299Z,56.60
2019-01-30T00:09:05.628Z,56.80
2019-01-30T00:10:07.937Z,56.90
2019-01-30T00:11:08.956Z,56.50
2019-01-30T00:12:09.984Z,56.00
2019-01-30T00:13:10.998Z,55.80
2019-01-30T00:14:11.999Z,55.70
2019-01-30T00:15:13.212Z,55.90
2019-01-30T00:16:14.233Z,55.80
2019-01-30T00:17:15.264Z,55.90
2019-01-30T00:18:16.379Z,56.50
2019-01-30T00:19:17.400Z,56.60
2019-01-30T00:20:18.429Z,56.70
2019-01-30T00:21:19.486Z,56.90
2019-01-30T00:22:20.568Z,56.50
2019-01-30T00:23:21.577Z,56.20
2019-01-30T00:24:22.620Z,56.20
2019-01-30T00:25:24.024Z,55.70
2019-01-30T00:26:25.252Z,55.70
2019-01-30T00:27:26.265Z,56.00
2019-01-30T00:28:27.293Z,56.40
2019-01-30T00:29:28.308Z,56.20
2019-01-30T00:30:29.623Z,56.40
2019-01-30T00:31:30.645Z,56.40
2019-01-30T00:32:31.656Z,56.50
2019-01-30T00:33:32.681Z,56.20
2019-01-30T00:34:33.709Z,56.60
2019-01-30T00:35:34.716Z,57.00
2019-01-30T00:36:35.752Z,57.10
2019-01-30T00:37:36.753Z,55.70
2019-01-30T00:38:37.763Z,55.50
2019-01-30T00:39:38.768Z,55.20
2019-01-30T00:40:39.799Z,55.20
2019-01-30T00:41:41.653Z,55.00
2019-01-30T00:42:42.665Z,54.80
2019-01-30T00:43:43.681Z,54.50
2019-01-30T00:44:44.696Z,54.40
2019-01-30T00:45:45.725Z,54.30
2019-01-30T00:46:46.740Z,54.50
2019-01-30T00:47:47.903Z,54.50
2019-01-30T00:48:49.096Z,54.40
2019-01-30T00:49:50.103Z,55.00
2019-01-30T00:50:51.121Z,55.20
2019-01-30T00:51:52.210Z,54.90
2019-01-30T00:52:53.244Z,55.00
2019-01-30T00:53:54.276Z,55.10
2019-01-30T00:54:55.291Z,55.10
2019-01-30T00:55:56.313Z,55.20
2019-01-30T00:56:57.344Z,55.30
2019-01-30T00:57:58.355Z,55.50
2019-01-30T00:58:59.369Z,55.80
2019-01-30T01:00:00.383Z,56.00
2019-01-30T01:01:01.387Z,56.00
2019-01-30T01:02:02.832Z,56.10
2019-01-30T01:03:04.044Z,55.70
2019-01-30T01:04:05.058Z,55.30
2019-01-30T01:05:06.272Z,55.80
2019-01-30T01:06:07.279Z,56.00
2019-01-30T01:07:08.308Z,56.40
2019-01-30T01:08:09.440Z,56.10
2019-01-30T01:09:10.447Z,56.00
2019-01-30T01:10:15.269Z,56.20
2019-01-30T01:11:16.285Z,56.10
2019-01-30T01:12:17.440Z,55.90
2019-01-30T01:13:18.436Z,55.90
2019-01-30T01:14:19.453Z,55.80
2019-01-30T01:15:20.471Z,55.70
2019-01-30T01:16:21.479Z,55.20
2019-01-30T01:17:22.540Z,55.30
2019-01-30T01:18:23.553Z,54.80
2019-01-30T01:19:24.559Z,54.80
2019-01-30T01:20:25.576Z,54.90
2019-01-30T01:21:26.692Z,54.50
2019-01-30T01:22:27.716Z,54.40
2019-01-30T01:23:28.735Z,55.10
2019-01-30T01:24:29.752Z,55.10
2019-01-30T01:25:30.768Z,55.20
2019-01-30T01:26:31.789Z,55.50
2019-01-30T01:27:32.831Z,55.50
2019-01-30T01:28:33.952Z,55.10
2019-01-30T01:29:34.959Z,55.40
2019-01-30T01:30:36.415Z,55.60
2019-01-30T01:31:37.440Z,55.30
2019-01-30T01:32:38.464Z,54.90
2019-01-30T01:33:39.481Z,54.80
2019-01-30T01:34:40.592Z,54.80
2019-01-30T01:35:41.604Z,55.10
2019-01-30T01:36:42.617Z,54.80
2019-01-30T01:37:43.643Z,54.90
2019-01-30T01:38:44.677Z,55.20
2019-01-30T01:39:45.680Z,55.00
2019-01-30T01:40:46.737Z,54.80
2019-01-30T01:41:47.752Z,55.10
2019-01-30T01:42:48.899Z,55.10
2019-01-30T01:43:49.917Z,55.10
2019-01-30T01:44:50.935Z,55.40
2019-01-30T01:45:52.289Z,55.50
2019-01-30T01:46:53.486Z,55.60
2019-01-30T01:47:54.526Z,55.50
2019-01-30T01:48:55.529Z,55.50
2019-01-30T01:49:56.540Z,55.40
2019-01-30T01:50:57.548Z,55.20
2019-01-30T01:51:58.860Z,55.20
2019-01-30T01:52:59.892Z,55.40
2019-01-30T01:54:00.908Z,55.20
2019-01-30T01:55:03.028Z,55.20
2019-01-30T01:56:04.045Z,55.30
2019-01-30T01:57:05.051Z,55.30
2019-01-30T01:58:06.079Z,55.00
2019-01-30T01:59:07.096Z,55.00
2019-01-30T02:00:16.628Z,54.90
2019-01-30T02:01:17.643Z,54.80
2019-01-30T02:02:18.656Z,54.80
2019-01-30T02:03:19.686Z,55.10
2019-01-30T02:04:20.696Z,54.50
2019-01-30T02:05:22.564Z,54.20
2019-01-30T02:06:23.677Z,54.40
2019-01-30T02:07:24.692Z,54.60
2019-01-30T02:08:25.763Z,54.50
2019-01-30T02:09:26.780Z,54.60
2019-01-30T02:10:28.188Z,54.50
2019-01-30T02:11:29.199Z,54.50
2019-01-30T02:12:30.215Z,54.70
2019-01-30T02:13:31.282Z,54.80
2019-01-30T02:14:32.335Z,54.90
2019-01-30T02:15:33.347Z,54.80
2019-01-30T02:16:34.369Z,54.80
2019-01-30T02:17:35.375Z,54.80
2019-01-30T02:18:36.405Z,54.70
2019-01-30T02:19:37.420Z,54.70
2019-01-30T02:20:38.800Z,54.70
2019-01-30T02:21:39.831Z,54.70
2019-01-30T02:22:40.864Z,54.60
2019-01-30T02:23:41.884Z,54.70
2019-01-30T02:24:42.901Z,54.70
2019-01-30T02:25:43.908Z,54.40
2019-01-30T02:26:44.925Z,54.40
2019-01-30T02:27:45.940Z,54.30
2019-01-30T02:28:46.979Z,54.20
2019-01-30T02:29:47.989Z,54.10
2019-01-30T02:30:49.000Z,54.10
2019-01-30T02:31:50.016Z,54.40
2019-01-30T02:32:51.536Z,55.00
2019-01-30T02:33:52.686Z,54.20
2019-01-30T02:34:53.772Z,54.10
2019-01-30T02:35:54.867Z,54.00
2019-01-30T02:36:55.955Z,54.10
2019-01-30T02:37:56.971Z,54.20
2019-01-30T02:38:57.992Z,54.30
2019-01-30T02:39:59.010Z,54.30
2019-01-30T02:41:00.335Z,54.50
2019-01-30T02:42:01.342Z,54.80
2019-01-30T02:43:02.349Z,55.00
2019-01-30T02:44:03.478Z,54.90
2019-01-30T02:45:07.900Z,55.20
2019-01-30T02:46:08.916Z,55.40
2019-01-30T02:47:09.928Z,55.20
2019-01-30T02:48:10.940Z,55.30
2019-01-30T02:49:11.961Z,55.00
2019-01-30T02:50:14.980Z,55.20
2019-01-30T02:51:16.006Z,54.90
2019-01-30T02:52:17.011Z,54.20
2019-01-30T02:53:18.025Z,54.40
2019-01-30T02:54:19.047Z,54.70
2019-01-30T02:55:20.364Z,54.20
2019-01-30T02:56:21.371Z,54.30
2019-01-30T02:57:22.383Z,54.40
2019-01-30T02:58:23.504Z,53.80
2019-01-30T02:59:24.528Z,54.10
2019-01-30T03:00:58.527Z,53.80
2019-01-30T03:01:53.164Z,53.90
2019-01-30T03:02:54.157Z,53.90
2019-01-30T03:03:55.245Z,54.00
2019-01-30T03:04:56.340Z,54.20
2019-01-30T03:05:57.360Z,54.00
2019-01-30T03:06:58.472Z,53.90
2019-01-30T03:07:59.503Z,54.20
2019-01-30T03:09:00.697Z,54.10
2019-01-30T03:10:03.549Z,54.20
2019-01-30T03:11:04.563Z,54.40
2019-01-30T03:12:05.573Z,54.50
2019-01-30T03:13:06.576Z,54.10
2019-01-30T03:14:07.595Z,53.80
2019-01-30T03:15:11.008Z,53.80
2019-01-30T03:16:12.339Z,54.10
2019-01-30T03:17:13.347Z,53.70
2019-01-30T03:18:14.376Z,54.00
2019-01-30T03:19:15.389Z,54.00
2019-01-30T03:20:24.516Z,54.20
2019-01-30T03:21:25.527Z,54.40
2019-01-30T03:22:26.533Z,54.20
2019-01-30T03:23:27.548Z,54.20
2019-01-30T03:24:28.573Z,54.30
2019-01-30T03:25:29.811Z,54.50
2019-01-30T03:26:30.820Z,54.50
2019-01-30T03:27:31.838Z,54.50
2019-01-30T03:28:32.877Z,54.70
2019-01-30T03:29:33.910Z,54.40
2019-01-30T03:30:35.023Z,54.20
2019-01-30T03:31:36.039Z,54.20
2019-01-30T03:32:37.156Z,54.40
2019-01-30T03:33:38.155Z,54.30
2019-01-30T03:34:39.224Z,55.10
2019-01-30T03:35:40.303Z,54.50
2019-01-30T03:36:44.295Z,55.00
2019-01-30T03:37:45.425Z,54.90
2019-01-30T03:38:46.428Z,54.80
2019-01-30T03:39:47.498Z,54.70
2019-01-30T03:40:48.512Z,54.80
2019-01-30T03:41:49.580Z,54.90
2019-01-30T03:42:50.703Z,54.70
2019-01-30T03:43:51.707Z,54.80
2019-01-30T03:44:52.749Z,54.70
2019-01-30T03:45:53.763Z,54.70
2019-01-30T03:46:54.797Z,55.00
2019-01-30T03:47:55.814Z,54.90
2019-01-30T03:48:56.883Z,54.70
2019-01-30T03:49:57.912Z,54.50
2019-01-30T03:50:58.924Z,54.60
2019-01-30T03:51:59.936Z,54.60
2019-01-30T03:53:00.941Z,53.90
2019-01-30T03:54:01.962Z,54.30
2019-01-30T03:55:05.588Z,54.40
2019-01-30T03:56:06.719Z,54.40
2019-01-30T03:57:07.724Z,54.60
2019-01-30T03:58:08.745Z,54.80
2019-01-30T03:59:09.753Z,54.50
2019-01-30T04:00:14.484Z,54.50
2019-01-30T04:01:26.260Z,54.10
2019-01-30T04:02:18.399Z,53.90
2019-01-30T04:03:19.416Z,53.80
2019-01-30T04:04:20.425Z,54.00
2019-01-30T04:05:22.048Z,53.80
2019-01-30T04:06:23.106Z,53.70
2019-01-30T04:07:24.101Z,53.70
2019-01-30T04:08:25.125Z,53.70
2019-01-30T04:09:26.134Z,53.60
2019-01-30T04:10:27.154Z,53.80
2019-01-30T04:11:28.169Z,54.20
2019-01-30T04:12:29.179Z,54.00
2019-01-30T04:13:30.196Z,53.80
2019-01-30T04:14:31.212Z,53.60
2019-01-30T04:15:32.283Z,53.90
2019-01-30T04:16:33.288Z,53.80
2019-01-30T04:17:34.303Z,53.70
2019-01-30T04:18:35.308Z,53.90
2019-01-30T04:19:36.324Z,54.00
2019-01-30T04:20:37.346Z,54.40
2019-01-30T04:21:38.377Z,54.60
2019-01-30T04:22:39.387Z,54.30
2019-01-30T04:23:40.418Z,54.10
2019-01-30T04:24:41.431Z,54.30
2019-01-30T04:25:42.464Z,54.00
2019-01-30T04:26:43.492Z,53.80
2019-01-30T04:27:44.515Z,53.50
2019-01-30T04:28:45.524Z,53.60
2019-01-30T04:29:46.531Z,53.70
2019-01-30T04:30:47.560Z,53.70
2019-01-30T04:31:48.573Z,53.50
2019-01-30T04:32:49.600Z,53.70
2019-01-30T04:33:50.602Z,53.80
2019-01-30T04:34:51.606Z,53.70
2019-01-30T04:35:52.659Z,53.70
2019-01-30T04:36:53.743Z,53.40
2019-01-30T04:37:54.773Z,53.70
2019-01-30T04:38:55.783Z,53.70
2019-01-30T04:39:56.797Z,53.80
2019-01-30T04:40:57.958Z,53.80
2019-01-30T04:41:58.989Z,53.80
2019-01-30T04:42:59.996Z,53.80
2019-01-30T04:44:01.017Z,53.40
2019-01-30T04:45:04.741Z,53.60
2019-01-30T04:46:05.773Z,53.60
2019-01-30T04:47:06.792Z,53.50
2019-01-30T04:48:07.818Z,53.40
2019-01-30T04:49:08.856Z,53.00
2019-01-30T04:50:09.990Z,53.20
2019-01-30T04:51:11.007Z,53.10
2019-01-30T04:52:12.028Z,52.90
2019-01-30T04:53:13.149Z,53.30
2019-01-30T04:54:14.161Z,53.60
2019-01-30T04:55:15.372Z,53.40
2019-01-30T04:56:16.403Z,53.20
2019-01-30T04:57:17.516Z,53.20
2019-01-30T04:58:18.531Z,53.20
2019-01-30T04:59:19.553Z,53.30
2019-01-30T05:00:23.588Z,53.20
2019-01-30T05:01:24.620Z,53.20
2019-01-30T05:02:25.636Z,54.60
2019-01-30T05:03:26.663Z,54.40
2019-01-30T05:04:27.659Z,53.30
2019-01-30T05:05:28.669Z,53.00
2019-01-30T05:06:29.688Z,53.10
2019-01-30T05:07:30.697Z,53.20
2019-01-30T05:08:31.726Z,53.00
2019-01-30T05:09:32.750Z,52.80
2019-01-30T05:10:33.865Z,52.70
2019-01-30T05:11:34.880Z,52.70
2019-01-30T05:12:35.917Z,52.90
2019-01-30T05:13:36.920Z,52.60
2019-01-30T05:14:37.955Z,52.60
2019-01-30T05:15:38.974Z,52.70
2019-01-30T05:16:39.995Z,53.10
2019-01-30T05:17:41.004Z,53.00
2019-01-30T05:18:42.032Z,53.10
2019-01-30T05:19:43.052Z,53.00
2019-01-30T05:20:44.053Z,53.30
2019-01-30T05:21:45.909Z,53.00
2019-01-30T05:22:46.953Z,53.10
2019-01-30T05:23:48.044Z,52.80
2019-01-30T05:24:49.050Z,53.10
2019-01-30T05:25:50.065Z,53.00
2019-01-30T05:26:51.084Z,52.90
2019-01-30T05:27:52.088Z,53.10
2019-01-30T05:28:53.164Z,53.20
2019-01-30T05:29:54.200Z,53.20
2019-01-30T05:30:55.225Z,53.20
2019-01-30T05:32:01.287Z,53.00
2019-01-30T05:32:59.185Z,53.00
2019-01-30T05:34:00.245Z,53.10
2019-01-30T05:35:01.264Z,52.80
2019-01-30T05:36:02.689Z,52.90
2019-01-30T05:37:03.713Z,52.80
2019-01-30T05:38:04.823Z,52.80
2019-01-30T05:39:06.854Z,52.90
2019-01-30T05:40:14.013Z,52.40
2019-01-30T05:41:15.037Z,52.40
2019-01-30T05:42:16.051Z,52.00
2019-01-30T05:43:17.100Z,51.80
2019-01-30T05:44:18.125Z,51.80
2019-01-30T05:45:19.271Z,52.10
2019-01-30T05:46:20.300Z,52.00
2019-01-30T05:47:21.334Z,52.10
2019-01-30T05:48:22.355Z,51.90
2019-01-30T05:49:23.496Z,52.20
2019-01-30T05:50:24.494Z,52.40
2019-01-30T05:51:25.508Z,52.40
2019-01-30T05:52:26.533Z,52.50
2019-01-30T05:53:27.538Z,52.50
2019-01-30T05:54:28.554Z,52.50
2019-01-30T05:55:29.559Z,52.70
2019-01-30T05:56:30.576Z,52.60
2019-01-30T05:57:31.609Z,52.50
2019-01-30T05:58:32.628Z,52.40
2019-01-30T05:59:33.642Z,52.20
2019-01-30T06:00:36.776Z,52.40
2019-01-30T06:01:37.809Z,52.40
2019-01-30T06:02:38.839Z,52.50
2019-01-30T06:03:39.860Z,52.70
2019-01-30T06:04:40.872Z,52.70
2019-01-30T06:05:43.114Z,52.90
2019-01-30T06:06:44.443Z,52.70
2019-01-30T06:07:45.480Z,52.50
2019-01-30T06:08:46.495Z,52.70
2019-01-30T06:09:47.506Z,52.60
2019-01-30T06:10:48.524Z,52.30
2019-01-30T06:11:49.554Z,52.20
2019-01-30T06:12:50.585Z,51.60
2019-01-30T06:13:51.614Z,51.60
2019-01-30T06:14:52.625Z,52.10
2019-01-30T06:15:53.736Z,52.20
2019-01-30T06:16:54.766Z,51.90
2019-01-30T06:17:55.832Z,52.00
2019-01-30T06:18:56.843Z,51.70
2019-01-30T06:19:57.857Z,51.40
2019-01-30T06:20:58.874Z,51.50
2019-01-30T06:21:59.896Z,51.90
2019-01-30T06:23:01.808Z,51.80
2019-01-30T06:24:03.246Z,51.60
2019-01-30T06:25:06.768Z,51.70
2019-01-30T06:26:07.795Z,51.70
2019-01-30T06:27:08.812Z,51.60
2019-01-30T06:28:09.847Z,51.10
2019-01-30T06:29:10.864Z,51.30
2019-01-30T06:30:15.083Z,51.70
2019-01-30T06:31:16.095Z,51.70
2019-01-30T06:32:21.949Z,51.60
2019-01-30T06:33:20.032Z,51.80
2019-01-30T06:34:21.045Z,51.30
2019-01-30T06:35:22.368Z,51.90
2019-01-30T06:36:23.525Z,52.00
2019-01-30T06:37:24.655Z,51.70
2019-01-30T06:38:25.829Z,51.30
2019-01-30T06:39:26.904Z,51.40
2019-01-30T06:40:30.013Z,51.40
2019-01-30T06:41:31.082Z,51.50
2019-01-30T06:42:32.137Z,51.70
2019-01-30T06:43:33.155Z,51.40
2019-01-30T06:44:34.180Z,51.70
2019-01-30T06:45:35.228Z,51.70
2019-01-30T06:46:36.276Z,51.80
2019-01-30T06:47:37.403Z,52.00
2019-01-30T06:48:38.416Z,52.00
2019-01-30T06:49:39.497Z,51.20
2019-01-30T06:50:40.503Z,51.40
2019-01-30T06:51:41.523Z,51.40
2019-01-30T06:52:42.559Z,51.20
2019-01-30T06:53:43.588Z,51.30
2019-01-30T06:54:44.609Z,51.40
2019-01-30T06:55:45.624Z,51.80
2019-01-30T06:56:46.704Z,51.30
2019-01-30T06:57:47.719Z,51.50
2019-01-30T06:58:48.744Z,51.20
2019-01-30T06:59:49.778Z,51.40
2019-01-30T07:00:52.751Z,51.20
2019-01-30T07:01:54.051Z,51.30
2019-01-30T07:02:55.800Z,51.30
2019-01-30T07:03:56.834Z,51.30
2019-01-30T07:04:57.844Z,51.50
2019-01-30T07:05:58.863Z,51.20
2019-01-30T07:06:59.885Z,51.20
2019-01-30T07:08:00.912Z,50.70
2019-01-30T07:09:05.748Z,50.60
2019-01-30T07:10:16.209Z,50.70
2019-01-30T07:11:17.218Z,50.40
2019-01-30T07:12:18.225Z,50.90
2019-01-30T07:13:19.318Z,50.90
2019-01-30T07:14:20.360Z,51.30
2019-01-30T07:15:21.479Z,50.50
2019-01-30T07:16:22.488Z,50.20
2019-01-30T07:17:23.555Z,50.20
2019-01-30T07:18:24.636Z,50.20
2019-01-30T07:19:25.693Z,50.50
2019-01-30T07:20:26.696Z,50.30
2019-01-30T07:21:27.719Z,50.40
2019-01-30T07:22:29.032Z,50.90
2019-01-30T07:23:30.071Z,51.00
2019-01-30T07:24:31.111Z,50.70
2019-01-30T07:25:32.128Z,50.80
2019-01-30T07:26:33.179Z,50.80
2019-01-30T07:27:34.205Z,51.20
2019-01-30T07:28:35.228Z,51.40
2019-01-30T07:29:36.244Z,51.70
2019-01-30T07:30:37.263Z,51.00
2019-01-30T07:31:38.633Z,50.30
2019-01-30T07:32:42.230Z,50.30
2019-01-30T07:33:42.632Z,50.30
2019-01-30T07:34:43.743Z,50.40
2019-01-30T07:35:44.751Z,50.40
2019-01-30T07:36:45.774Z,50.40
2019-01-30T07:37:47.090Z,50.40
2019-01-30T07:38:48.124Z,50.40
2019-01-30T07:39:49.372Z,50.40
2019-01-30T07:40:50.493Z,50.40
2019-01-30T07:41:51.511Z,50.40
2019-01-30T07:42:52.520Z,50.40
2019-01-30T07:43:53.549Z,50.40
2019-01-30T07:44:54.587Z,50.50
2019-01-30T07:45:55.596Z,50.40
2019-01-30T07:46:56.605Z,50.50
2019-01-30T07:47:57.650Z,50.50
2019-01-30T07:48:58.660Z,50.80
2019-01-30T07:49:59.686Z,50.70
2019-01-30T07:51:00.702Z,50.50
2019-01-30T07:52:01.720Z,50.40
2019-01-30T07:53:03.131Z,50.50
2019-01-30T07:54:04.245Z,50.50
2019-01-30T07:55:08.583Z,50.80
2019-01-30T07:56:09.660Z,50.40
2019-01-30T07:57:10.676Z,50.30
2019-01-30T07:58:11.688Z,50.40
2019-01-30T07:59:13.100Z,50.50
2019-01-30T08:00:17.971Z,50.60
2019-01-30T08:01:19.064Z,50.60
2019-01-30T08:02:21.884Z,50.40
2019-01-30T08:03:23.001Z,50.50
2019-01-30T08:04:24.092Z,50.40
2019-01-30T08:05:25.118Z,50.40
2019-01-30T08:06:26.123Z,51.10
2019-01-30T08:07:27.786Z,50.60
2019-01-30T08:08:28.853Z,50.80
2019-01-30T08:09:29.892Z,50.50
2019-01-30T08:10:30.908Z,50.50
2019-01-30T08:11:33.072Z,50.60
2019-01-30T08:12:34.371Z,50.60
2019-01-30T08:13:35.444Z,51.20
2019-01-30T08:14:36.577Z,51.20
2019-01-30T08:15:37.583Z,51.00
2019-01-30T08:16:38.599Z,50.60
2019-01-30T08:17:39.625Z,50.70
2019-01-30T08:18:40.623Z,50.60
2019-01-30T08:19:41.760Z,50.80
2019-01-30T08:20:43.239Z,50.70
2019-01-30T08:21:44.256Z,50.60
2019-01-30T08:22:45.488Z,50.60
2019-01-30T08:23:46.498Z,50.00
2019-01-30T08:24:47.562Z,50.60
2019-01-30T08:25:48.808Z,50.70
2019-01-30T08:26:50.209Z,50.40
2019-01-30T08:27:51.524Z,50.10
2019-01-30T08:28:52.676Z,49.70
2019-01-30T08:29:54.066Z,49.30
2019-01-30T08:30:55.258Z,49.20
2019-01-30T08:31:56.476Z,48.40
2019-01-30T08:33:04.623Z,48.40
2019-01-30T08:34:00.697Z,48.40
2019-01-30T08:35:02.412Z,48.40
2019-01-30T08:36:03.424Z,48.70
2019-01-30T08:37:04.453Z,48.50
2019-01-30T08:38:05.484Z,48.50
2019-01-30T08:39:06.934Z,48.40
2019-01-30T08:40:09.262Z,48.40
2019-01-30T08:41:10.288Z,48.50
2019-01-30T08:42:11.393Z,48.40
2019-01-30T08:43:12.707Z,48.40
2019-01-30T08:44:13.728Z,48.80
2019-01-30T08:45:20.948Z,49.00
2019-01-30T08:46:21.951Z,48.80
2019-01-30T08:47:22.969Z,48.70
2019-01-30T08:48:24.171Z,49.10
2019-01-30T08:49:25.193Z,48.50
2019-01-30T08:50:26.500Z,48.70
2019-01-30T08:51:27.523Z,48.80
2019-01-30T08:52:28.736Z,48.80
2019-01-30T08:53:29.747Z,49.10
2019-01-30T08:54:30.772Z,49.00
2019-01-30T08:55:31.827Z,48.70
2019-01-30T08:56:38.721Z,49.10
2019-01-30T08:57:35.841Z,50.20
2019-01-30T08:58:36.979Z,49.00
2019-01-30T08:59:37.999Z,49.10
2019-01-30T09:00:39.312Z,49.10
2019-01-30T09:01:40.316Z,49.20
2019-01-30T09:02:41.333Z,48.90
2019-01-30T09:03:42.705Z,49.00
2019-01-30T09:05:04.913Z,49.00
2019-01-30T09:06:05.941Z,49.20
2019-01-30T09:07:06.952Z,49.20
2019-01-30T09:08:08.851Z,49.00
2019-01-30T09:09:10.228Z,49.10
2019-01-30T09:10:14.176Z,49.40
2019-01-30T09:11:15.367Z,49.10
2019-01-30T09:12:16.483Z,49.40
2019-01-30T09:13:17.600Z,49.50
2019-01-30T09:14:18.629Z,49.40
2019-01-30T09:15:21.456Z,49.50
2019-01-30T09:16:22.501Z,49.50
2019-01-30T09:17:23.520Z,49.60
2019-01-30T09:18:24.575Z,49.40
2019-01-30T09:19:25.593Z,49.40
2019-01-30T09:20:26.760Z,49.40
2019-01-30T09:21:27.784Z,49.60
2019-01-30T09:22:28.820Z,49.50
2019-01-30T09:23:29.839Z,49.20
2019-01-30T09:24:30.864Z,49.10
2019-01-30T09:25:31.883Z,49.60
2019-01-30T09:26:32.892Z,49.20
2019-01-30T09:27:33.960Z,49.10
2019-01-30T09:28:34.963Z,49.10
2019-01-30T09:29:35.992Z,49.20
2019-01-30T09:30:37.308Z,49.10
2019-01-30T09:31:38.593Z,49.20
2019-01-30T09:32:39.612Z,49.20
2019-01-30T09:33:40.670Z,49.40
2019-01-30T09:34:41.927Z,49.10
2019-01-30T09:35:43.025Z,49.20
2019-01-30T09:36:44.035Z,49.30
2019-01-30T09:37:45.354Z,49.40
2019-01-30T09:38:46.378Z,49.40
2019-01-30T09:39:48.685Z,49.00
2019-01-30T09:40:49.863Z,49.10
2019-01-30T09:41:50.932Z,49.20
2019-01-30T09:42:52.052Z,49.20
2019-01-30T09:43:53.133Z,49.30
2019-01-30T09:44:54.944Z,49.20
2019-01-30T09:45:56.060Z,49.30
2019-01-30T09:46:57.080Z,49.20
2019-01-30T09:47:58.095Z,49.00
2019-01-30T09:48:59.116Z,49.70
2019-01-30T09:50:00.228Z,49.00
2019-01-30T09:51:01.263Z,49.40
2019-01-30T09:52:02.586Z,49.50
2019-01-30T09:53:03.992Z,49.50
2019-01-30T09:54:05.012Z,49.00
2019-01-30T09:55:08.897Z,49.20
2019-01-30T09:56:09.986Z,48.90
2019-01-30T09:57:11.022Z,49.10
2019-01-30T09:58:12.129Z,49.20
2019-01-30T09:59:13.136Z,49.10
2019-01-30T10:00:24.284Z,49.00
2019-01-30T10:01:25.304Z,49.20
2019-01-30T10:02:26.316Z,49.10
2019-01-30T10:03:36.150Z,48.80
2019-01-30T10:04:32.533Z,48.90
2019-01-30T10:05:37.449Z,48.80
2019-01-30T10:06:39.551Z,48.70
2019-01-30T10:07:40.852Z,48.90
2019-01-30T10:08:42.136Z,48.80
2019-01-30T10:09:43.441Z,48.80
2019-01-30T10:10:44.571Z,48.90
2019-01-30T10:11:45.584Z,49.00
2019-01-30T10:12:46.608Z,49.30
2019-01-30T10:13:47.620Z,49.50
2019-01-30T10:14:48.638Z,49.40
2019-01-30T10:15:49.660Z,49.70
2019-01-30T10:16:50.708Z,49.80
2019-01-30T10:17:51.773Z,50.00
2019-01-30T10:18:52.843Z,49.90
2019-01-30T10:19:53.864Z,50.00
2019-01-30T10:20:54.908Z,50.10
2019-01-30T10:21:55.923Z,50.20
2019-01-30T10:22:57.074Z,50.20
2019-01-30T10:23:58.123Z,50.30
2019-01-30T10:24:59.130Z,50.30
2019-01-30T10:26:00.149Z,50.20
2019-01-30T10:27:01.167Z,50.20
2019-01-30T10:28:03.187Z,49.90
2019-01-30T10:29:04.471Z,50.10
2019-01-30T10:30:12.185Z,50.20
2019-01-30T10:31:13.245Z,50.10
2019-01-30T10:32:14.359Z,50.20
2019-01-30T10:33:15.383Z,50.20
2019-01-30T10:34:16.797Z,50.00
2019-01-30T10:35:18.110Z,50.00
2019-01-30T10:36:19.237Z,49.70
2019-01-30T10:37:20.248Z,49.70
2019-01-30T10:38:21.337Z,49.80
2019-01-30T10:39:22.452Z,49.60
2019-01-30T10:40:23.584Z,49.30
2019-01-30T10:41:24.606Z,48.90
2019-01-30T10:42:25.617Z,49.10
2019-01-30T10:43:26.624Z,49.10
2019-01-30T10:44:27.638Z,48.90
2019-01-30T10:45:28.648Z,48.70
2019-01-30T10:46:29.667Z,49.10
2019-01-30T10:47:30.676Z,49.30
2019-01-30T10:48:31.704Z,48.80
2019-01-30T10:49:32.762Z,49.20
2019-01-30T10:50:33.844Z,49.20
2019-01-30T10:51:35.133Z,50.00
2019-01-30T10:52:36.209Z,48.60
2019-01-30T10:53:37.231Z,48.90
2019-01-30T10:54:38.528Z,49.10
2019-01-30T10:55:39.543Z,49.40
2019-01-30T10:56:40.604Z,49.40
2019-01-30T10:57:43.221Z,49.20
2019-01-30T10:58:44.250Z,49.00
2019-01-30T10:59:45.305Z,49.40
2019-01-30T11:00:48.443Z,49.40
2019-01-30T11:01:49.482Z,49.20
2019-01-30T11:02:50.516Z,49.40
2019-01-30T11:03:57.300Z,49.50
2019-01-30T11:04:54.543Z,49.70
2019-01-30T11:05:55.554Z,49.80
2019-01-30T11:06:56.607Z,50.40
2019-01-30T11:07:57.695Z,49.70
2019-01-30T11:08:58.737Z,50.10
2019-01-30T11:09:59.744Z,50.10
2019-01-30T11:11:07.527Z,50.00
2019-01-30T11:12:03.689Z,50.30
2019-01-30T11:13:05.608Z,50.50
2019-01-30T11:14:06.820Z,50.70
2019-01-30T11:15:11.568Z,50.90
2019-01-30T11:16:15.730Z,51.70
2019-01-30T11:17:16.805Z,50.80
2019-01-30T11:18:17.876Z,50.80
2019-01-30T11:19:18.894Z,51.00
2019-01-30T11:20:21.907Z,51.10
2019-01-30T11:21:23.252Z,51.00
2019-01-30T11:22:24.267Z,51.10
2019-01-30T11:23:25.711Z,50.90
2019-01-30T11:24:27.360Z,51.60
2019-01-30T11:25:34.348Z,50.70
2019-01-30T11:26:36.568Z,50.60
2019-01-30T11:27:37.761Z,50.70
2019-01-30T11:28:38.911Z,50.50
2019-01-30T11:29:39.958Z,50.50
2019-01-30T11:30:40.994Z,49.40
2019-01-30T11:31:42.119Z,49.40
2019-01-30T11:32:43.229Z,49.80
2019-01-30T11:33:44.253Z,49.80
2019-01-30T11:34:45.268Z,49.20
2019-01-30T11:35:46.290Z,49.10
2019-01-30T11:36:47.308Z,49.40
2019-01-30T11:37:48.329Z,49.70
2019-01-30T11:38:49.341Z,49.20
2019-01-30T11:39:50.364Z,49.30
2019-01-30T11:40:51.677Z,49.50
2019-01-30T11:41:52.749Z,49.30
2019-01-30T11:42:53.855Z,49.60
2019-01-30T11:43:54.947Z,49.70
2019-01-30T11:44:55.965Z,49.10
2019-01-30T11:45:56.980Z,49.30
2019-01-30T11:46:57.999Z,49.50
2019-01-30T11:47:59.219Z,49.50
2019-01-30T11:49:00.235Z,49.50
2019-01-30T11:50:01.450Z,49.60
2019-01-30T11:51:02.561Z,49.70
2019-01-30T11:52:03.784Z,49.80
2019-01-30T11:53:05.000Z,49.90
2019-01-30T11:54:06.017Z,49.20
2019-01-30T11:55:10.135Z,49.60
2019-01-30T11:56:11.165Z,49.20
2019-01-30T11:57:12.196Z,49.40
2019-01-30T11:58:13.203Z,49.40
2019-01-30T11:59:14.251Z,49.30
2019-01-30T12:00:28.884Z,49.60
2019-01-30T12:01:29.903Z,49.80
2019-01-30T12:02:30.918Z,49.80
2019-01-30T12:03:31.926Z,49.90
2019-01-30T12:04:33.071Z,50.00
2019-01-30T12:05:34.471Z,49.90
2019-01-30T12:06:35.506Z,50.40
2019-01-30T12:07:36.571Z,49.90
2019-01-30T12:08:37.760Z,49.70
2019-01-30T12:09:38.788Z,50.00
2019-01-30T12:10:39.827Z,49.40
2019-01-30T12:11:40.849Z,49.70
2019-01-30T12:12:42.067Z,50.00
2019-01-30T12:13:43.132Z,49.80
2019-01-30T12:14:44.159Z,50.10
2019-01-30T12:15:45.180Z,50.10
2019-01-30T12:16:46.187Z,50.10
2019-01-30T12:17:47.308Z,50.20
2019-01-30T12:18:48.319Z,50.20
2019-01-30T12:19:49.346Z,50.40
2019-01-30T12:20:51.948Z,50.10
2019-01-30T12:21:53.172Z,50.50
2019-01-30T12:22:54.196Z,50.70
2019-01-30T12:23:55.388Z,50.80
2019-01-30T12:24:56.407Z,50.70
2019-01-30T12:25:57.432Z,51.00
2019-01-30T12:26:58.451Z,50.70
2019-01-30T12:27:59.480Z,50.50
2019-01-30T12:29:00.515Z,50.60
2019-01-30T12:30:02.848Z,51.00
2019-01-30T12:31:03.862Z,51.80
2019-01-30T12:32:04.989Z,51.10
2019-01-30T12:33:06.104Z,51.30
2019-01-30T12:34:07.119Z,51.20
2019-01-30T12:35:08.432Z,51.20
2019-01-30T12:36:09.442Z,51.20
2019-01-30T12:37:10.471Z,51.20
2019-01-30T12:38:11.557Z,51.10
2019-01-30T12:39:12.616Z,51.20
2019-01-30T12:40:18.283Z,50.50
2019-01-30T12:41:19.403Z,50.80
2019-01-30T12:42:20.436Z,50.90
2019-01-30T12:43:21.651Z,50.80
2019-01-30T12:44:22.861Z,50.60
2019-01-30T12:45:26.472Z,51.10
2019-01-30T12:46:27.481Z,50.50
2019-01-30T12:47:28.492Z,50.30
2019-01-30T12:48:29.515Z,50.60
2019-01-30T12:49:30.549Z,50.60
2019-01-30T12:50:31.739Z,50.70
2019-01-30T12:51:32.729Z,51.30
2019-01-30T12:52:33.748Z,50.90
2019-01-30T12:53:35.005Z,51.00
2019-01-30T12:54:36.012Z,50.60
2019-01-30T12:55:37.044Z,50.20
2019-01-30T12:56:38.049Z,50.40
2019-01-30T12:57:39.164Z,50.50
2019-01-30T12:58:40.184Z,50.20
2019-01-30T12:59:41.200Z,50.20
2019-01-30T13:00:43.040Z,50.30
2019-01-30T13:01:44.065Z,50.20
2019-01-30T13:02:45.180Z,50.20
2019-01-30T13:03:46.223Z,50.10
2019-01-30T13:04:47.264Z,50.10
2019-01-30T13:05:48.567Z,50.40
2019-01-30T13:06:49.579Z,50.70
2019-01-30T13:07:50.798Z,50.70
2019-01-30T13:08:51.833Z,50.80
2019-01-30T13:09:52.852Z,51.00
2019-01-30T13:10:53.956Z,51.10